Disclaimer

Please do not use the information listed here in-flight or in-navigation, as they are not provided to us by the airports but are provided by volunteers, so they might be outdated.

Search


Regions


Airport information page

Radio informations:
Tower (TWR) - 118.95 MHz
Approach (APP) - 118.95 MHz

Airport informations:
Latitude: 44° 56' 29.20" N
Longitude: 017° 17' 51.00" E
Elevation: 400 feet - 122 meters
Operating hours: Remarks
Operating agency: Military-civil joint use airport
Timezone: UTC+1(+2DT) - Last Sunday in March to last Sunday in October
Fuel: Jet fuel avaiable but type is unknown.

Runway information:
17/35 - 8213 x 148 feet< - >2503 x 45 meters

Recent METARs:
LQBK 170700Z 32002KT 9999 FEW030 M00/M01 Q1028 NOSIG
LQBK 170730Z 35002KT 9999 SCT025 01/00 Q1028 NOSIG
LQBK 170800Z 01002KT 9999 SCT025 02/01 Q1029 NOSIG

Airport on the map: